sensor_id;sensor_type;location;lat;lon;timestamp;pressure;altitude;pressure_sealevel;temperature;humidity
71105;BME280;58760;48.716;8.962;2023-03-24T00:00:45;95634.88;;;11.80;80.67
71105;BME280;58760;48.716;8.962;2023-03-24T00:03:10;95639.59;;;11.91;79.47
71105;BME280;58760;48.716;8.962;2023-03-24T00:05:36;95650.00;;;11.73;80.70
71105;BME280;58760;48.716;8.962;2023-03-24T00:08:03;95638.69;;;11.64;80.59
71105;BME280;58760;48.716;8.962;2023-03-24T00:10:29;95638.66;;;11.51;81.22
71105;BME280;58760;48.716;8.962;2023-03-24T00:12:59;95639.75;;;11.70;80.16
71105;BME280;58760;48.716;8.962;2023-03-24T00:15:25;95633.38;;;11.64;79.67
71105;BME280;58760;48.716;8.962;2023-03-24T00:17:50;95628.53;;;11.74;79.21
71105;BME280;58760;48.716;8.962;2023-03-24T00:20:18;95623.22;;;11.81;78.47
71105;BME280;58760;48.716;8.962;2023-03-24T00:22:47;95616.28;;;11.80;77.53
71105;BME280;58760;48.716;8.962;2023-03-24T00:25:15;95612.78;;;11.73;77.72
71105;BME280;58760;48.716;8.962;2023-03-24T00:27:41;95620.53;;;11.74;77.62
71105;BME280;58760;48.716;8.962;2023-03-24T00:30:10;95604.41;;;11.76;77.27
71105;BME280;58760;48.716;8.962;2023-03-24T00:32:37;95603.00;;;11.73;77.77
71105;BME280;58760;48.716;8.962;2023-03-24T00:35:07;95603.19;;;11.85;77.65
71105;BME280;58760;48.716;8.962;2023-03-24T00:37:34;95593.16;;;11.80;77.53
71105;BME280;58760;48.716;8.962;2023-03-24T00:40:07;95603.78;;;11.74;77.73
71105;BME280;58760;48.716;8.962;2023-03-24T00:42:35;95595.22;;;11.78;77.88
71105;BME280;58760;48.716;8.962;2023-03-24T00:45:05;95584.75;;;11.57;77.62
71105;BME280;58760;48.716;8.962;2023-03-24T00:47:32;95585.78;;;11.69;77.67
71105;BME280;58760;48.716;8.962;2023-03-24T00:50:04;95577.38;;;11.66;77.83
71105;BME280;58760;48.716;8.962;2023-03-24T00:52:30;95584.75;;;11.64;77.12
71105;BME280;58760;48.716;8.962;2023-03-24T00:54:58;95573.47;;;11.48;77.71
71105;BME280;58760;48.716;8.962;2023-03-24T00:57:26;95566.13;;;11.44;78.26
71105;BME280;58760;48.716;8.962;2023-03-24T00:59:54;95566.91;;;11.44;78.17
71105;BME280;58760;48.716;8.962;2023-03-24T01:02:22;95560.16;;;11.35;77.83
71105;BME280;58760;48.716;8.962;2023-03-24T01:04:57;95567.94;;;11.30;77.90
71105;BME280;58760;48.716;8.962;2023-03-24T01:07:25;95558.13;;;11.31;78.05
71105;BME280;58760;48.716;8.962;2023-03-24T01:09:51;95558.72;;;11.33;77.53
71105;BME280;58760;48.716;8.962;2023-03-24T01:12:27;95551.13;;;11.10;78.21
71105;BME280;58760;48.716;8.962;2023-03-24T01:14:53;95552.53;;;11.06;78.44
71105;BME280;58760;48.716;8.962;2023-03-24T01:17:19;95539.25;;;11.06;78.51
71105;BME280;58760;48.716;8.962;2023-03-24T01:19:53;95541.69;;;11.01;78.67
71105;BME280;58760;48.716;8.962;2023-03-24T01:22:19;95543.38;;;11.28;77.51
71105;BME280;58760;48.716;8.962;2023-03-24T01:24:48;95546.47;;;11.45;76.39
71105;BME280;58760;48.716;8.962;2023-03-24T01:27:14;95540.94;;;11.27;77.08
71105;BME280;58760;48.716;8.962;2023-03-24T01:29:40;95522.94;;;11.22;77.95
71105;BME280;58760;48.716;8.962;2023-03-24T01:32:06;95522.16;;;11.41;77.14
71105;BME280;58760;48.716;8.962;2023-03-24T01:34:32;95515.81;;;11.36;77.46
71105;BME280;58760;48.716;8.962;2023-03-24T01:36:59;95519.72;;;11.40;77.21
71105;BME280;58760;48.716;8.962;2023-03-24T01:39:25;95515.25;;;11.40;77.18
71105;BME280;58760;48.716;8.962;2023-03-24T01:41:50;95526.47;;;11.49;76.86
71105;BME280;58760;48.716;8.962;2023-03-24T01:44:28;95527.88;;;11.32;77.36
71105;BME280;58760;48.716;8.962;2023-03-24T01:46:55;95513.56;;;11.26;77.37
71105;BME280;58760;48.716;8.962;2023-03-24T01:49:21;95522.53;;;11.19;78.11
71105;BME280;58760;48.716;8.962;2023-03-24T01:51:52;95515.22;;;11.34;77.46
71105;BME280;58760;48.716;8.962;2023-03-24T01:54:25;95505.41;;;11.28;77.01
71105;BME280;58760;48.716;8.962;2023-03-24T01:56:59;95515.22;;;11.27;77.43
71105;BME280;58760;48.716;8.962;2023-03-24T01:59:28;95502.97;;;11.33;76.83
71105;BME280;58760;48.716;8.962;2023-03-24T02:01:54;95508.09;;;11.41;76.46
71105;BME280;58760;48.716;8.962;2023-03-24T02:04:29;95518.72;;;11.47;76.66
71105;BME280;58760;48.716;8.962;2023-03-24T02:06:57;95515.25;;;11.53;76.11
71105;BME280;58760;48.716;8.962;2023-03-24T02:09:23;95513.78;;;11.57;75.61
71105;BME280;58760;48.716;8.962;2023-03-24T02:11:48;95507.47;;;11.52;75.92
71105;BME280;58760;48.716;8.962;2023-03-24T02:14:14;95514.00;;;11.49;76.14
71105;BME280;58760;48.716;8.962;2023-03-24T02:27:30;95504.19;;;11.37;77.17
71105;BME280;58760;48.716;8.962;2023-03-24T02:46:31;95490.28;;;11.61;75.64
71105;BME280;58760;48.716;8.962;2023-03-24T02:51:37;95481.31;;;11.55;75.73
71105;BME280;58760;48.716;8.962;2023-03-24T02:54:17;95470.69;;;11.69;75.13
71105;BME280;58760;48.716;8.962;2023-03-24T02:56:51;95472.97;;;11.72;75.21
71105;BME280;58760;48.716;8.962;2023-03-24T03:02:01;95476.22;;;11.67;75.51
71105;BME280;58760;48.716;8.962;2023-03-24T03:04:31;95479.66;;;11.48;76.15
71105;BME280;58760;48.716;8.962;2023-03-24T03:07:02;95474.75;;;11.65;75.38
71105;BME280;58760;48.716;8.962;2023-03-24T03:09:36;95464.56;;;11.48;76.18
71105;BME280;58760;48.716;8.962;2023-03-24T03:12:06;95462.13;;;11.53;76.06
71105;BME280;58760;48.716;8.962;2023-03-24T03:14:50;95459.22;;;11.62;76.20
71105;BME280;58760;48.716;8.962;2023-03-24T03:17:23;95465.78;;;11.52;76.35
71105;BME280;58760;48.716;8.962;2023-03-24T03:20:11;95466.59;;;11.46;76.92
71105;BME280;58760;48.716;8.962;2023-03-24T03:22:45;95455.75;;;11.54;76.10
71105;BME280;58760;48.716;8.962;2023-03-24T03:25:15;95456.78;;;11.60;76.35
71105;BME280;58760;48.716;8.962;2023-03-24T03:27:44;95457.63;;;11.61;76.03
71105;BME280;58760;48.716;8.962;2023-03-24T03:30:27;95460.88;;;11.69;75.83
71105;BME280;58760;48.716;8.962;2023-03-24T03:33:02;95458.81;;;11.65;76.02
71105;BME280;58760;48.716;8.962;2023-03-24T03:35:34;95451.50;;;11.47;76.55
71105;BME280;58760;48.716;8.962;2023-03-24T03:38:12;95457.41;;;11.42;76.83
71105;BME280;58760;48.716;8.962;2023-03-24T03:40:42;95453.50;;;11.51;76.16
71105;BME280;58760;48.716;8.962;2023-03-24T03:43:11;95460.66;;;11.44;76.31
71105;BME280;58760;48.716;8.962;2023-03-24T03:45:36;95453.91;;;11.35;76.78
71105;BME280;58760;48.716;8.962;2023-03-24T03:48:02;95465.38;;;11.49;76.45
71105;BME280;58760;48.716;8.962;2023-03-24T03:50:27;95464.34;;;11.57;76.40
71105;BME280;58760;48.716;8.962;2023-03-24T03:52:53;95466.59;;;11.46;76.24
71105;BME280;58760;48.716;8.962;2023-03-24T03:55:19;95463.31;;;11.44;76.54
71105;BME280;58760;48.716;8.962;2023-03-24T03:57:44;95453.50;;;11.51;76.17
71105;BME280;58760;48.716;8.962;2023-03-24T04:00:17;95449.03;;;11.45;76.00
71105;BME280;58760;48.716;8.962;2023-03-24T04:05:51;95455.75;;;11.41;76.23
71105;BME280;58760;48.716;8.962;2023-03-24T04:19:19;95445.53;;;11.38;76.49
71105;BME280;58760;48.716;8.962;2023-03-24T04:33:25;95450.44;;;11.81;74.90
71105;BME280;58760;48.716;8.962;2023-03-24T04:36:04;95439.81;;;11.81;74.53
71105;BME280;58760;48.716;8.962;2023-03-24T04:38:32;95451.28;;;11.81;74.82
71105;BME280;58760;48.716;8.962;2023-03-24T04:41:00;95450.66;;;11.92;74.21
71105;BME280;58760;48.716;8.962;2023-03-24T04:43:29;95455.16;;;11.92;74.36
71105;BME280;58760;48.716;8.962;2023-03-24T04:46:00;95455.16;;;11.92;74.88
71105;BME280;58760;48.716;8.962;2023-03-24T04:48:26;95468.81;;;12.09;74.21
71105;BME280;58760;48.716;8.962;2023-03-24T04:50:57;95479.66;;;12.07;74.77
71105;BME280;58760;48.716;8.962;2023-03-24T04:53:24;95482.53;;;12.12;74.90
71105;BME280;58760;48.716;8.962;2023-03-24T04:55:56;95480.25;;;12.16;74.98
71105;BME280;58760;48.716;8.962;2023-03-24T04:58:23;95493.59;;;12.02;75.36
71105;BME280;58760;48.716;8.962;2023-03-24T05:00:50;95505.81;;;12.10;75.21
71105;BME280;58760;48.716;8.962;2023-03-24T05:03:16;95505.84;;;12.03;75.78
71105;BME280;58760;48.716;8.962;2023-03-24T05:05:45;95524.44;;;12.10;75.49
71105;BME280;58760;48.716;8.962;2023-03-24T05:08:12;95527.53;;;11.94;76.23
71105;BME280;58760;48.716;8.962;2023-03-24T05:10:38;95535.31;;;11.89;76.71
71105;BME280;58760;48.716;8.962;2023-03-24T05:13:05;95545.53;;;11.92;77.49
71105;BME280;58760;48.716;8.962;2023-03-24T05:15:31;95544.72;;;11.98;77.84
71105;BME280;58760;48.716;8.962;2023-03-24T05:17:57;95559.41;;;12.27;77.68
71105;BME280;58760;48.716;8.962;2023-03-24T05:20:22;95554.91;;;12.27;78.83
71105;BME280;58760;48.716;8.962;2023-03-24T05:22:48;95558.56;;;12.33;79.14
71105;BME280;58760;48.716;8.962;2023-03-24T05:25:14;95550.84;;;12.18;80.70
71105;BME280;58760;48.716;8.962;2023-03-24T05:27:40;95563.50;;;12.16;81.35
71105;BME280;58760;48.716;8.962;2023-03-24T05:30:06;95560.66;;;12.18;82.71
71105;BME280;58760;48.716;8.962;2023-03-24T05:32:32;95557.81;;;11.99;83.31
71105;BME280;58760;48.716;8.962;2023-03-24T05:34:57;95570.06;;;12.00;83.58
71105;BME280;58760;48.716;8.962;2023-03-24T05:37:23;95560.66;;;11.85;84.53
71105;BME280;58760;48.716;8.962;2023-03-24T05:39:48;95568.03;;;11.83;85.44
71105;BME280;58760;48.716;8.962;2023-03-24T05:42:15;95565.16;;;11.84;85.75
71105;BME280;58760;48.716;8.962;2023-03-24T05:44:41;95566.56;;;11.80;86.50
71105;BME280;58760;48.716;8.962;2023-03-24T05:47:06;95565.56;;;11.75;86.81
71105;BME280;58760;48.716;8.962;2023-03-24T05:49:32;95572.53;;;11.82;87.31
71105;BME280;58760;48.716;8.962;2023-03-24T05:51:57;95578.03;;;11.81;87.40
71105;BME280;58760;48.716;8.962;2023-03-24T05:54:23;95581.47;;;11.68;88.68
71105;BME280;58760;48.716;8.962;2023-03-24T05:56:48;95576.16;;;11.62;88.77
71105;BME280;58760;48.716;8.962;2023-03-24T05:59:14;95572.94;;;11.73;88.67
71105;BME280;58760;48.716;8.962;2023-03-24T06:01:39;95573.31;;;11.63;89.41
71105;BME280;58760;48.716;8.962;2023-03-24T06:04:06;95569.41;;;11.52;90.47
71105;BME280;58760;48.716;8.962;2023-03-24T06:06:32;95569.81;;;11.49;91.27
71105;BME280;58760;48.716;8.962;2023-03-24T06:08:57;95562.66;;;11.57;91.32
71105;BME280;58760;48.716;8.962;2023-03-24T06:11:26;95567.75;;;11.58;91.17
71105;BME280;58760;48.716;8.962;2023-03-24T06:13:52;95566.13;;;11.50;92.10
71105;BME280;58760;48.716;8.962;2023-03-24T06:16:17;95560.88;;;11.77;91.09
71105;BME280;58760;48.716;8.962;2023-03-24T06:18:43;95575.31;;;11.68;91.06
71105;BME280;58760;48.716;8.962;2023-03-24T06:21:16;95571.22;;;11.52;92.56
71105;BME280;58760;48.716;8.962;2023-03-24T06:23:42;95565.50;;;11.48;93.38
71105;BME280;58760;48.716;8.962;2023-03-24T06:26:09;95571.22;;;11.52;94.61
71105;BME280;58760;48.716;8.962;2023-03-24T06:28:36;95573.91;;;11.59;94.68
71105;BME280;58760;48.716;8.962;2023-03-24T06:31:06;95569.44;;;11.79;94.84
71105;BME280;58760;48.716;8.962;2023-03-24T06:33:41;95560.25;;;11.88;94.09
71105;BME280;58760;48.716;8.962;2023-03-24T06:36:08;95560.66;;;11.98;93.44
71105;BME280;58760;48.716;8.962;2023-03-24T06:38:34;95563.50;;;12.16;92.44
71105;BME280;58760;48.716;8.962;2023-03-24T06:41:00;95574.34;;;12.28;91.62
71105;BME280;58760;48.716;8.962;2023-03-24T06:43:25;95565.13;;;12.30;91.21
71105;BME280;58760;48.716;8.962;2023-03-24T06:45:51;95568.38;;;12.32;90.51
71105;BME280;58760;48.716;8.962;2023-03-24T06:48:16;95569.00;;;12.41;90.32
71105;BME280;58760;48.716;8.962;2023-03-24T06:50:42;95575.97;;;12.35;90.67
71105;BME280;58760;48.716;8.962;2023-03-24T06:53:07;95574.94;;;12.30;90.77
71105;BME280;58760;48.716;8.962;2023-03-24T06:55:33;95568.03;;;12.22;91.37
71105;BME280;58760;48.716;8.962;2023-03-24T06:57:58;95583.97;;;12.22;92.58
71105;BME280;58760;48.716;8.962;2023-03-24T07:00:23;95581.09;;;12.11;92.70
71105;BME280;58760;48.716;8.962;2023-03-24T07:02:50;95589.72;;;12.06;93.55
71105;BME280;58760;48.716;8.962;2023-03-24T07:05:16;95599.72;;;11.91;94.66
71105;BME280;58760;48.716;8.962;2023-03-24T07:07:43;95591.31;;;11.81;94.98
71105;BME280;58760;48.716;8.962;2023-03-24T07:10:09;95598.47;;;11.87;95.76
71105;BME280;58760;48.716;8.962;2023-03-24T07:12:34;95601.53;;;11.84;96.04
71105;BME280;58760;48.716;8.962;2023-03-24T07:15:00;95598.88;;;11.84;96.36
71105;BME280;58760;48.716;8.962;2023-03-24T07:17:28;95607.09;;;11.82;96.75
71105;BME280;58760;48.716;8.962;2023-03-24T07:19:53;95607.69;;;11.78;97.45
71105;BME280;58760;48.716;8.962;2023-03-24T07:22:19;95617.88;;;11.74;97.62
71105;BME280;58760;48.716;8.962;2023-03-24T07:24:44;95613.56;;;11.67;98.20
71105;BME280;58760;48.716;8.962;2023-03-24T07:27:10;95627.88;;;11.66;99.10
71105;BME280;58760;48.716;8.962;2023-03-24T07:29:35;95632.34;;;11.59;99.16
71105;BME280;58760;48.716;8.962;2023-03-24T07:32:01;95615.59;;;11.65;99.36
71105;BME280;58760;48.716;8.962;2023-03-24T07:34:28;95631.78;;;11.70;98.67
71105;BME280;58760;48.716;8.962;2023-03-24T07:36:53;95622.00;;;11.70;99.00
71105;BME280;58760;48.716;8.962;2023-03-24T07:39:19;95629.56;;;11.73;99.15
71105;BME280;58760;48.716;8.962;2023-03-24T07:41:45;95633.41;;;11.71;99.60
71105;BME280;58760;48.716;8.962;2023-03-24T07:44:11;95639.94;;;11.68;99.18
71105;BME280;58760;48.716;8.962;2023-03-24T07:46:36;95633.25;;;11.79;99.15
71105;BME280;58760;48.716;8.962;2023-03-24T07:49:02;95637.53;;;11.80;99.05
71105;BME280;58760;48.716;8.962;2023-03-24T07:51:27;95633.66;;;11.82;99.02
71105;BME280;58760;48.716;8.962;2023-03-24T07:53:53;95633.03;;;11.80;98.67
71105;BME280;58760;48.716;8.962;2023-03-24T07:56:19;95635.50;;;11.82;98.94
71105;BME280;58760;48.716;8.962;2023-03-24T07:58:45;95640.63;;;11.77;98.91
71105;BME280;58760;48.716;8.962;2023-03-24T08:01:11;95650.19;;;11.78;99.16
71105;BME280;58760;48.716;8.962;2023-03-24T08:03:38;95650.19;;;11.78;99.37
71105;BME280;58760;48.716;8.962;2023-03-24T08:06:05;95656.34;;;11.85;99.47
71105;BME280;58760;48.716;8.962;2023-03-24T08:08:31;95659.00;;;11.85;99.38
71105;BME280;58760;48.716;8.962;2023-03-24T08:10:56;95653.50;;;11.93;98.94
71105;BME280;58760;48.716;8.962;2023-03-24T08:13:22;95646.97;;;11.89;98.40
71105;BME280;58760;48.716;8.962;2023-03-24T08:15:48;95628.75;;;11.92;98.61
71105;BME280;58760;48.716;8.962;2023-03-24T08:18:14;95621.22;;;12.02;98.84
71105;BME280;58760;48.716;8.962;2023-03-24T08:20:40;95617.50;;;12.10;98.67
71105;BME280;58760;48.716;8.962;2023-03-24T08:23:06;95611.78;;;12.13;98.30
71105;BME280;58760;48.716;8.962;2023-03-24T08:25:33;95613.66;;;12.19;98.41
71105;BME280;58760;48.716;8.962;2023-03-24T08:27:59;95609.53;;;12.23;98.96
71105;BME280;58760;48.716;8.962;2023-03-24T08:30:25;95574.75;;;12.25;98.92
71105;BME280;58760;48.716;8.962;2023-03-24T08:32:59;95550.81;;;12.31;99.14
71105;BME280;58760;48.716;8.962;2023-03-24T08:35:32;95525.81;;;12.39;99.59
71105;BME280;58760;48.716;8.962;2023-03-24T08:37:58;95549.56;;;12.34;98.94
71105;BME280;58760;48.716;8.962;2023-03-24T08:40:25;95545.09;;;12.28;98.28
71105;BME280;58760;48.716;8.962;2023-03-24T08:42:56;95537.69;;;12.36;98.85
71105;BME280;58760;48.716;8.962;2023-03-24T08:45:24;95568.00;;;12.35;98.26
71105;BME280;58760;48.716;8.962;2023-03-24T08:47:52;95569.19;;;12.39;97.47
71105;BME280;58760;48.716;8.962;2023-03-24T08:50:20;95566.34;;;12.34;97.27
71105;BME280;58760;48.716;8.962;2023-03-24T08:52:46;95573.09;;;12.43;96.75
71105;BME280;58760;48.716;8.962;2023-03-24T08:55:16;95603.56;;;12.54;97.28
71105;BME280;58760;48.716;8.962;2023-03-24T08:57:42;95601.13;;;12.46;96.02
71105;BME280;58760;48.716;8.962;2023-03-24T09:00:08;95600.91;;;12.54;96.38
71105;BME280;58760;48.716;8.962;2023-03-24T09:02:44;95598.66;;;12.51;95.53
71105;BME280;58760;48.716;8.962;2023-03-24T09:05:11;95595.16;;;12.64;95.17
71105;BME280;58760;48.716;8.962;2023-03-24T09:07:37;95591.44;;;12.78;93.90
71105;BME280;58760;48.716;8.962;2023-03-24T09:10:04;95606.78;;;12.76;92.88
71105;BME280;58760;48.716;8.962;2023-03-24T09:12:30;95613.13;;;12.81;93.49
71105;BME280;58760;48.716;8.962;2023-03-24T09:14:55;95607.19;;;12.79;94.36
71105;BME280;58760;48.716;8.962;2023-03-24T09:17:21;95597.97;;;12.75;93.38
71105;BME280;58760;48.716;8.962;2023-03-24T09:19:46;95589.19;;;12.68;93.57
71105;BME280;58760;48.716;8.962;2023-03-24T09:22:11;95591.03;;;12.81;92.32
71105;BME280;58760;48.716;8.962;2023-03-24T09:24:37;95603.91;;;12.84;92.37
71105;BME280;58760;48.716;8.962;2023-03-24T09:27:03;95609.41;;;12.89;91.51
71105;BME280;58760;48.716;8.962;2023-03-24T09:29:29;95613.47;;;12.98;90.38
71105;BME280;58760;48.716;8.962;2023-03-24T09:31:55;95592.53;;;13.21;87.56
71105;BME280;58760;48.716;8.962;2023-03-24T09:34:22;95597.91;;;13.52;85.45
71105;BME280;58760;48.716;8.962;2023-03-24T09:36:48;95606.50;;;13.54;85.42
71105;BME280;58760;48.716;8.962;2023-03-24T09:39:14;95617.28;;;13.66;83.29
71105;BME280;58760;48.716;8.962;2023-03-24T09:41:41;95610.72;;;13.69;83.08
71105;BME280;58760;48.716;8.962;2023-03-24T09:46:52;95603.38;;;13.64;82.09
71105;BME280;58760;48.716;8.962;2023-03-24T09:49:23;95603.72;;;13.74;82.64
71105;BME280;58760;48.716;8.962;2023-03-24T09:51:57;95597.31;;;13.82;81.06
71105;BME280;58760;48.716;8.962;2023-03-24T09:54:36;95606.50;;;13.86;81.31
71105;BME280;58760;48.716;8.962;2023-03-24T09:57:14;95594.53;;;13.95;79.44
71105;BME280;58760;48.716;8.962;2023-03-24T09:59:41;95583.59;;;14.28;79.00
71105;BME280;58760;48.716;8.962;2023-03-24T10:02:15;95582.28;;;14.61;79.62
71105;BME280;58760;48.716;8.962;2023-03-24T10:04:42;95587.56;;;14.86;79.01
71105;BME280;58760;48.716;8.962;2023-03-24T10:07:28;95583.50;;;15.02;78.24
71105;BME280;58760;48.716;8.962;2023-03-24T10:09:58;95586.88;;;15.09;75.56
71105;BME280;58760;48.716;8.962;2023-03-24T10:12:44;95583.34;;;15.15;76.55
71105;BME280;58760;48.716;8.962;2023-03-24T10:15:22;95583.25;;;15.22;73.11
71105;BME280;58760;48.716;8.962;2023-03-24T10:17:56;95612.56;;;15.10;73.85
71105;BME280;58760;48.716;8.962;2023-03-24T10:20:53;95581.16;;;15.05;72.60
71105;BME280;58760;48.716;8.962;2023-03-24T10:23:40;95599.66;;;15.07;72.91
71105;BME280;58760;48.716;8.962;2023-03-24T10:26:22;95587.34;;;15.06;69.74
71105;BME280;58760;48.716;8.962;2023-03-24T10:28:52;95596.38;;;14.87;72.05
71105;BME280;58760;48.716;8.962;2023-03-24T10:31:28;95605.88;;;14.83;73.15
71105;BME280;58760;48.716;8.962;2023-03-24T10:33:55;95594.19;;;15.02;72.80
71105;BME280;58760;48.716;8.962;2023-03-24T10:36:21;95597.41;;;15.22;71.72
71105;BME280;58760;48.716;8.962;2023-03-24T10:38:47;95615.63;;;15.50;71.00
71105;BME280;58760;48.716;8.962;2023-03-24T10:41:18;95622.59;;;15.51;69.98
71105;BME280;58760;48.716;8.962;2023-03-24T10:43:44;95611.50;;;15.29;71.94
71105;BME280;58760;48.716;8.962;2023-03-24T10:46:15;95621.84;;;15.26;70.54
71105;BME280;58760;48.716;8.962;2023-03-24T10:48:44;95620.41;;;15.41;71.05
71105;BME280;58760;48.716;8.962;2023-03-24T10:51:25;95632.97;;;15.41;71.09
71105;BME280;58760;48.716;8.962;2023-03-24T10:54:09;95641.44;;;15.19;69.51
71105;BME280;58760;48.716;8.962;2023-03-24T10:56:40;95631.84;;;15.12;68.93
71105;BME280;58760;48.716;8.962;2023-03-24T10:59:20;95644.88;;;15.08;69.12
71105;BME280;58760;48.716;8.962;2023-03-24T11:01:47;95641.22;;;15.03;70.28
71105;BME280;58760;48.716;8.962;2023-03-24T11:04:16;95623.25;;;15.28;68.90
71105;BME280;58760;48.716;8.962;2023-03-24T11:06:58;95633.88;;;15.53;68.46
71105;BME280;58760;48.716;8.962;2023-03-24T11:09:24;95616.84;;;15.65;67.63
71105;BME280;58760;48.716;8.962;2023-03-24T11:11:50;95625.97;;;15.58;67.65
71105;BME280;58760;48.716;8.962;2023-03-24T11:16:44;95639.59;;;15.56;68.98
71105;BME280;58760;48.716;8.962;2023-03-24T11:19:21;95638.31;;;15.59;67.32
71105;BME280;58760;48.716;8.962;2023-03-24T11:21:48;95656.66;;;15.74;66.42
71105;BME280;58760;48.716;8.962;2023-03-24T11:24:18;95640.84;;;15.84;66.18
71105;BME280;58760;48.716;8.962;2023-03-24T11:26:49;95634.00;;;15.88;66.76
71105;BME280;58760;48.716;8.962;2023-03-24T11:29:19;95633.19;;;15.57;66.40
71105;BME280;58760;48.716;8.962;2023-03-24T11:31:52;95625.69;;;15.30;68.08
71105;BME280;58760;48.716;8.962;2023-03-24T11:34:35;95651.47;;;14.88;67.91
71105;BME280;58760;48.716;8.962;2023-03-24T11:37:24;95644.84;;;14.90;69.03
71105;BME280;58760;48.716;8.962;2023-03-24T11:42:31;95667.88;;;14.66;68.68
71105;BME280;58760;48.716;8.962;2023-03-24T11:44:57;95647.88;;;14.76;69.02
71105;BME280;58760;48.716;8.962;2023-03-24T11:47:33;95656.53;;;15.14;67.96
71105;BME280;58760;48.716;8.962;2023-03-24T11:53:10;95667.44;;;15.49;64.36
71105;BME280;58760;48.716;8.962;2023-03-24T11:55:56;95639.88;;;15.30;66.16
71105;BME280;58760;48.716;8.962;2023-03-24T12:01:20;95644.16;;;14.77;66.11
71105;BME280;58760;48.716;8.962;2023-03-24T12:17:23;95638.84;;;14.95;63.92
71105;BME280;58760;48.716;8.962;2023-03-24T12:20:06;95649.38;;;15.26;63.29
71105;BME280;58760;48.716;8.962;2023-03-24T12:25:38;95645.53;;;14.86;64.06
71105;BME280;58760;48.716;8.962;2023-03-24T12:33:39;95668.88;;;14.90;65.10
71105;BME280;58760;48.716;8.962;2023-03-24T12:39:08;95657.94;;;14.98;64.43
71105;BME280;58760;48.716;8.962;2023-03-24T12:44:18;95653.53;;;15.22;64.73
71105;BME280;58760;48.716;8.962;2023-03-24T12:47:02;95654.28;;;15.11;64.28
71105;BME280;58760;48.716;8.962;2023-03-24T12:49:53;95639.34;;;15.40;63.11
71105;BME280;58760;48.716;8.962;2023-03-24T12:52:42;95635.66;;;16.00;61.76
71105;BME280;58760;48.716;8.962;2023-03-24T12:55:17;95638.00;;;15.97;61.83
71105;BME280;58760;48.716;8.962;2023-03-24T12:58:31;95620.09;;;15.67;62.06
71105;BME280;58760;48.716;8.962;2023-03-24T13:03:51;95633.66;;;15.18;64.13
71105;BME280;58760;48.716;8.962;2023-03-24T13:06:22;95628.97;;;15.13;65.13
71105;BME280;58760;48.716;8.962;2023-03-24T13:09:12;95628.00;;;14.90;64.46
71105;BME280;58760;48.716;8.962;2023-03-24T13:12:09;95626.22;;;14.65;66.66
71105;BME280;58760;48.716;8.962;2023-03-24T13:17:20;95627.91;;;14.35;66.78
71105;BME280;58760;48.716;8.962;2023-03-24T13:19:48;95654.50;;;14.17;66.88
71105;BME280;58760;48.716;8.962;2023-03-24T13:22:17;95644.38;;;14.01;68.33
71105;BME280;58760;48.716;8.962;2023-03-24T13:24:45;95641.84;;;14.06;69.15
71105;BME280;58760;48.716;8.962;2023-03-24T13:27:19;95645.78;;;14.03;68.82
71105;BME280;58760;48.716;8.962;2023-03-24T13:30:01;95642.63;;;14.13;68.33
71105;BME280;58760;48.716;8.962;2023-03-24T13:32:31;95632.34;;;14.17;67.83
71105;BME280;58760;48.716;8.962;2023-03-24T13:40:07;95645.63;;;13.92;69.39
71105;BME280;58760;48.716;8.962;2023-03-24T13:42:42;95641.47;;;14.02;68.23
71105;BME280;58760;48.716;8.962;2023-03-24T13:45:23;95641.28;;;14.29;67.84
71105;BME280;58760;48.716;8.962;2023-03-24T13:50:32;95651.72;;;14.37;67.63
71105;BME280;58760;48.716;8.962;2023-03-24T13:53:04;95638.22;;;14.56;66.68
71105;BME280;58760;48.716;8.962;2023-03-24T13:55:34;95655.63;;;14.59;65.18
71105;BME280;58760;48.716;8.962;2023-03-24T13:58:10;95642.34;;;14.52;66.13
71105;BME280;58760;48.716;8.962;2023-03-24T14:01:11;95637.91;;;14.64;65.54
71105;BME280;58760;48.716;8.962;2023-03-24T14:06:48;95631.00;;;14.57;66.70
71105;BME280;58760;48.716;8.962;2023-03-24T14:09:19;95640.69;;;14.51;67.07
71105;BME280;58760;48.716;8.962;2023-03-24T14:14:26;95636.53;;;14.31;66.73
71105;BME280;58760;48.716;8.962;2023-03-24T14:19:24;95623.22;;;14.24;68.73
71105;BME280;58760;48.716;8.962;2023-03-24T14:24:45;95632.66;;;14.02;69.50
71105;BME280;58760;48.716;8.962;2023-03-24T14:29:59;95639.56;;;14.09;71.59
71105;BME280;58760;48.716;8.962;2023-03-24T14:32:25;95631.19;;;14.06;70.51
71105;BME280;58760;48.716;8.962;2023-03-24T14:34:54;95644.13;;;14.02;71.72
71105;BME280;58760;48.716;8.962;2023-03-24T14:37:21;95637.63;;;13.92;72.13
71105;BME280;58760;48.716;8.962;2023-03-24T14:39:48;95645.34;;;13.75;71.57
71105;BME280;58760;48.716;8.962;2023-03-24T14:47:58;95645.56;;;13.36;73.02
71105;BME280;58760;48.716;8.962;2023-03-24T14:50:26;95638.59;;;13.28;75.56
71105;BME280;58760;48.716;8.962;2023-03-24T14:52:54;95647.25;;;13.10;77.21
71105;BME280;58760;48.716;8.962;2023-03-24T14:55:22;95652.28;;;12.68;80.34
71105;BME280;58760;48.716;8.962;2023-03-24T14:57:53;95660.88;;;12.37;83.76
71105;BME280;58760;48.716;8.962;2023-03-24T15:03:01;95677.66;;;12.04;87.91
71105;BME280;58760;48.716;8.962;2023-03-24T15:05:35;95682.84;;;11.59;94.48
71105;BME280;58760;48.716;8.962;2023-03-24T15:08:22;95681.47;;;11.28;99.00
71105;BME280;58760;48.716;8.962;2023-03-24T15:13:36;95682.19;;;11.02;100.00
71105;BME280;58760;48.716;8.962;2023-03-24T15:18:56;95680.59;;;11.08;100.00
71105;BME280;58760;48.716;8.962;2023-03-24T15:21:24;95675.47;;;11.07;99.85
71105;BME280;58760;48.716;8.962;2023-03-24T15:23:50;95677.34;;;11.13;100.00
71105;BME280;58760;48.716;8.962;2023-03-24T15:26:18;95675.88;;;11.03;99.27
71105;BME280;58760;48.716;8.962;2023-03-24T15:28:52;95679.50;;;10.96;98.48
71105;BME280;58760;48.716;8.962;2023-03-24T15:31:17;95670.53;;;10.97;99.22
71105;BME280;58760;48.716;8.962;2023-03-24T15:33:45;95667.03;;;10.96;98.77